Meteo Giornale » Osservazioni meteo Stati Uniti (USA) » Washington DC-Dulles

ore: 12:52 - Osservazioni Meteo Washington DC-Dulles
Lat. 38° 56' N Lon. 77° 26' W Alt. 95 metri s.l.m.

molto_nuvoloso

33 °C

Molto Nuvoloso

Temp. 24 Ore

23 °C

33 °C

Ovest/Nord-Ovest

22.2 Km/h

Dew point 22 °C

Umidità 52 %

Visibilità  10 Km

Il sole sorge alle ore 06:38

Il sole tramonta alle ore 19:40

Data e Ora Cielo e Fenomeni T °C DP °C Um. % Pres. hPa Vis. km Vento km/h
Oggi h: 12:52 molto_nuvoloso Molto Nuvoloso 33 22 52 1016 10 O/NO 22.2
Oggi h: 11:52 molto_nuvoloso Molto Nuvoloso 33 22 52 1016 10 O/NO 14.8
Oggi h: 10:52 nuvoloso Nuvoloso 32 22 55 1017 10 O 9.3
Oggi h: 09:52 molto_nuvoloso Molto Nuvoloso 29 22 66 1017 10 SO 9.3
Oggi h: 08:52 molto_nuvoloso Molto Nuvoloso 27 22 74 1017 10 N 0
Oggi h: 07:52 molto_nuvoloso Molto Nuvoloso 24 23 94 1017 10 N 0
Oggi h: 06:52 molto_nuvoloso Molto Nuvoloso 23 22 94 1017 10 N 0
Oggi h: 05:52 molto_nuvoloso Molto Nuvoloso 24 22 88 1017 10 N 0
Oggi h: 04:52 nuvoloso Nuvoloso 23 22 94 1017 10 S 7.4
Oggi h: 03:52 coperto Coperto 24 23 94 1017 10 S/SO 7.4
Oggi h: 02:52 coperto Coperto 24 23 94 1017 10 N 5.5
Oggi h: 01:52 coperto Coperto 24 23 94 1017 10 S/SE 7.4
Oggi h: 00:52 coperto Coperto 24 23 94 1018 10 N 5.5
Ieri h: 23:52 coperto Coperto 24 23 94 1018 10 N 5.5
Ieri h: 22:52 nuvoloso Nuvoloso 23 23 100 1018 13 N 5.5
Ieri h: 21:52 poco_nuvoloso Poco Nuvoloso 23 23 100 1018 14 N 0
Ieri h: 20:52 nuvoloso Nuvoloso 26 23 83 1018 10 N 0
Ieri h: 19:52 molto_nuvoloso Molto Nuvoloso 26 23 83 1018 10 N 0
Ieri h: 18:52 molto_nuvoloso Molto Nuvoloso 28 23 74 1018 10 N 5.5
Ieri h: 17:52 coperto Coperto 29 21 62 1018 10 N 5.5
Ieri h: 16:52 coperto_pioggia Pioggia 29 22 66 1018 10 NO 11.1
Ieri h: 15:52 coperto Coperto 29 22 66 1018 10 N 5.5
Ieri h: 14:52 coperto Coperto 29 22 66 1019 10 N 0
Ieri h: 13:52 molto_nuvoloso Molto Nuvoloso 30 22 62 1019 10 N 0